sensor_id;sensor_type;location;lat;lon;timestamp;pressure;altitude;pressure_sealevel;temperature;humidity
14067;BME280;7108;42.684;23.350;2022-10-16T00:02:18;95978.31;;;11.40;100.00
14067;BME280;7108;42.684;23.350;2022-10-16T00:04:43;95991.88;;;11.44;100.00
14067;BME280;7108;42.684;23.350;2022-10-16T00:07:09;95986.97;;;11.34;100.00
14067;BME280;7108;42.684;23.350;2022-10-16T00:09:34;95986.72;;;11.39;100.00
14067;BME280;7108;42.684;23.350;2022-10-16T00:12:00;95978.16;;;11.21;100.00
14067;BME280;7108;42.684;23.350;2022-10-16T00:14:25;95996.44;;;11.28;100.00
14067;BME280;7108;42.684;23.350;2022-10-16T00:16:50;95996.34;;;11.24;100.00
14067;BME280;7108;42.684;23.350;2022-10-16T00:19:16;95989.19;;;11.16;100.00
14067;BME280;7108;42.684;23.350;2022-10-16T00:21:41;95995.69;;;11.15;100.00
14067;BME280;7108;42.684;23.350;2022-10-16T00:24:09;95997.28;;;11.16;100.00
14067;BME280;7108;42.684;23.350;2022-10-16T00:26:35;95999.84;;;11.13;100.00
14067;BME280;7108;42.684;23.350;2022-10-16T00:29:01;96002.03;;;11.08;100.00
14067;BME280;7108;42.684;23.350;2022-10-16T00:31:27;96010.34;;;11.03;100.00
14067;BME280;7108;42.684;23.350;2022-10-16T00:33:53;95999.69;;;11.06;100.00
14067;BME280;7108;42.684;23.350;2022-10-16T00:36:21;96021.25;;;11.06;100.00
14067;BME280;7108;42.684;23.350;2022-10-16T00:38:47;96005.09;;;10.94;100.00
14067;BME280;7108;42.684;23.350;2022-10-16T00:41:16;96014.53;;;11.00;100.00
14067;BME280;7108;42.684;23.350;2022-10-16T00:43:56;96018.09;;;11.04;100.00
14067;BME280;7108;42.684;23.350;2022-10-16T00:46:35;96012.59;;;11.01;100.00
14067;BME280;7108;42.684;23.350;2022-10-16T00:51:52;96002.50;;;10.98;100.00
14067;BME280;7108;42.684;23.350;2022-10-16T00:54:29;96010.47;;;10.94;100.00
14067;BME280;7108;42.684;23.350;2022-10-16T00:56:56;96001.16;;;10.92;100.00
14067;BME280;7108;42.684;23.350;2022-10-16T00:59:29;96004.34;;;10.82;100.00
14067;BME280;7108;42.684;23.350;2022-10-16T01:01:56;96004.75;;;10.84;100.00
14067;BME280;7108;42.684;23.350;2022-10-16T01:04:23;96015.13;;;10.82;100.00
14067;BME280;7108;42.684;23.350;2022-10-16T01:09:54;96012.66;;;10.77;100.00
14067;BME280;7108;42.684;23.350;2022-10-16T01:20:35;96007.50;;;10.72;100.00
14067;BME280;7108;42.684;23.350;2022-10-16T01:31:31;96009.53;;;10.63;100.00
14067;BME280;7108;42.684;23.350;2022-10-16T01:34:06;96006.16;;;10.66;100.00
14067;BME280;7108;42.684;23.350;2022-10-16T01:36:40;95999.41;;;10.60;100.00
14067;BME280;7108;42.684;23.350;2022-10-16T01:39:10;95995.25;;;10.50;100.00
14067;BME280;7108;42.684;23.350;2022-10-16T01:41:44;96008.06;;;10.53;100.00
14067;BME280;7108;42.684;23.350;2022-10-16T01:44:30;96009.06;;;10.49;100.00
14067;BME280;7108;42.684;23.350;2022-10-16T01:46:57;96004.38;;;10.46;100.00
14067;BME280;7108;42.684;23.350;2022-10-16T01:49:25;96013.22;;;10.46;100.00
14067;BME280;7108;42.684;23.350;2022-10-16T01:51:56;96021.97;;;10.55;100.00
14067;BME280;7108;42.684;23.350;2022-10-16T01:54:27;96005.59;;;10.37;100.00
14067;BME280;7108;42.684;23.350;2022-10-16T01:56:57;96011.09;;;10.40;100.00
14067;BME280;7108;42.684;23.350;2022-10-16T01:59:25;96019.97;;;10.41;100.00
14067;BME280;7108;42.684;23.350;2022-10-16T02:01:59;96025.81;;;10.43;100.00
14067;BME280;7108;42.684;23.350;2022-10-16T02:04:33;96025.69;;;10.39;100.00
14067;BME280;7108;42.684;23.350;2022-10-16T02:06:59;96018.41;;;10.40;100.00
14067;BME280;7108;42.684;23.350;2022-10-16T02:09:25;96040.28;;;10.38;100.00
14067;BME280;7108;42.684;23.350;2022-10-16T02:11:53;96029.06;;;10.36;100.00
14067;BME280;7108;42.684;23.350;2022-10-16T02:14:21;96044.19;;;10.41;100.00
14067;BME280;7108;42.684;23.350;2022-10-16T02:16:49;96039.38;;;10.34;100.00
14067;BME280;7108;42.684;23.350;2022-10-16T02:19:16;96043.44;;;10.40;100.00
14067;BME280;7108;42.684;23.350;2022-10-16T02:22:01;96026.81;;;10.26;100.00
14067;BME280;7108;42.684;23.350;2022-10-16T02:25:02;96042.53;;;10.36;100.00
14067;BME280;7108;42.684;23.350;2022-10-16T02:27:33;96049.03;;;10.35;100.00
14067;BME280;7108;42.684;23.350;2022-10-16T02:30:11;96052.06;;;10.34;100.00
14067;BME280;7108;42.684;23.350;2022-10-16T02:32:41;96051.97;;;10.30;100.00
14067;BME280;7108;42.684;23.350;2022-10-16T02:35:08;96049.47;;;10.25;100.00
14067;BME280;7108;42.684;23.350;2022-10-16T02:37:35;96039.47;;;10.26;100.00
14067;BME280;7108;42.684;23.350;2022-10-16T02:40:01;96054.41;;;10.23;100.00
14067;BME280;7108;42.684;23.350;2022-10-16T02:42:39;96028.91;;;10.09;100.00
14067;BME280;7108;42.684;23.350;2022-10-16T02:45:06;96053.84;;;10.18;100.00
14067;BME280;7108;42.684;23.350;2022-10-16T02:47:33;96051.25;;;10.09;100.00
14067;BME280;7108;42.684;23.350;2022-10-16T02:49:59;96051.13;;;10.06;100.00
14067;BME280;7108;42.684;23.350;2022-10-16T02:52:24;96056.75;;;10.13;100.00
14067;BME280;7108;42.684;23.350;2022-10-16T02:54:50;96043.00;;;9.94;100.00
14067;BME280;7108;42.684;23.350;2022-10-16T02:57:15;96065.38;;;10.06;100.00
14067;BME280;7108;42.684;23.350;2022-10-16T02:59:41;96063.59;;;10.10;100.00
14067;BME280;7108;42.684;23.350;2022-10-16T03:02:06;96058.84;;;9.95;100.00
14067;BME280;7108;42.684;23.350;2022-10-16T03:04:32;96076.03;;;10.03;100.00
14067;BME280;7108;42.684;23.350;2022-10-16T03:06:57;96078.06;;;10.06;100.00
14067;BME280;7108;42.684;23.350;2022-10-16T03:09:22;96066.59;;;9.97;100.00
14067;BME280;7108;42.684;23.350;2022-10-16T03:11:48;96057.91;;;9.91;100.00
14067;BME280;7108;42.684;23.350;2022-10-16T03:14:13;96072.28;;;9.95;100.00
14067;BME280;7108;42.684;23.350;2022-10-16T03:16:39;96075.97;;;9.91;100.00
14067;BME280;7108;42.684;23.350;2022-10-16T03:19:04;96076.94;;;9.86;100.00
14067;BME280;7108;42.684;23.350;2022-10-16T03:21:30;96078.19;;;9.89;100.00
14067;BME280;7108;42.684;23.350;2022-10-16T03:23:55;96068.66;;;9.79;100.00
14067;BME280;7108;42.684;23.350;2022-10-16T03:26:21;96070.88;;;9.77;100.00
14067;BME280;7108;42.684;23.350;2022-10-16T03:28:46;96086.03;;;9.82;100.00
14067;BME280;7108;42.684;23.350;2022-10-16T03:31:11;96078.47;;;9.76;100.00
14067;BME280;7108;42.684;23.350;2022-10-16T03:33:37;96064.31;;;9.67;100.00
14067;BME280;7108;42.684;23.350;2022-10-16T03:36:02;96084.34;;;9.77;100.00
14067;BME280;7108;42.684;23.350;2022-10-16T03:38:28;96090.06;;;9.76;100.00
14067;BME280;7108;42.684;23.350;2022-10-16T03:40:53;96078.25;;;9.69;100.00
14067;BME280;7108;42.684;23.350;2022-10-16T03:43:19;96078.69;;;9.71;100.00
14067;BME280;7108;42.684;23.350;2022-10-16T03:45:44;96074.75;;;9.68;100.00
14067;BME280;7108;42.684;23.350;2022-10-16T03:48:10;96081.38;;;9.71;100.00
14067;BME280;7108;42.684;23.350;2022-10-16T03:50:35;96071.84;;;9.61;100.00
14067;BME280;7108;42.684;23.350;2022-10-16T03:53:01;96084.19;;;9.74;100.00
14067;BME280;7108;42.684;23.350;2022-10-16T03:55:26;96061.06;;;9.61;100.00
14067;BME280;7108;42.684;23.350;2022-10-16T03:57:52;96073.50;;;9.66;100.00
14067;BME280;7108;42.684;23.350;2022-10-16T04:00:17;96068.75;;;9.51;100.00
14067;BME280;7108;42.684;23.350;2022-10-16T04:02:43;96080.69;;;9.62;100.00
14067;BME280;7108;42.684;23.350;2022-10-16T04:05:08;96083.38;;;9.62;100.00
14067;BME280;7108;42.684;23.350;2022-10-16T04:07:34;96064.03;;;9.48;100.00
14067;BME280;7108;42.684;23.350;2022-10-16T04:09:59;96072.47;;;9.58;100.00
14067;BME280;7108;42.684;23.350;2022-10-16T04:12:25;96074.34;;;9.46;100.00
14067;BME280;7108;42.684;23.350;2022-10-16T04:14:51;96082.06;;;9.47;100.00
14067;BME280;7108;42.684;23.350;2022-10-16T04:17:16;96063.00;;;9.40;100.00
14067;BME280;7108;42.684;23.350;2022-10-16T04:19:42;96074.53;;;9.41;100.00
14067;BME280;7108;42.684;23.350;2022-10-16T04:22:07;96070.94;;;9.37;100.00
14067;BME280;7108;42.684;23.350;2022-10-16T04:24:32;96081.81;;;9.40;100.00
14067;BME280;7108;42.684;23.350;2022-10-16T04:26:58;96076.31;;;9.37;100.00
14067;BME280;7108;42.684;23.350;2022-10-16T04:29:23;96074.25;;;9.34;100.00
14067;BME280;7108;42.684;23.350;2022-10-16T04:31:49;96087.59;;;9.30;100.00
14067;BME280;7108;42.684;23.350;2022-10-16T04:34:14;96087.84;;;9.37;100.00
14067;BME280;7108;42.684;23.350;2022-10-16T04:36:39;96093.91;;;9.34;100.00
14067;BME280;7108;42.684;23.350;2022-10-16T04:39:05;96069.47;;;9.19;100.00
14067;BME280;7108;42.684;23.350;2022-10-16T04:41:30;96086.78;;;9.30;100.00
14067;BME280;7108;42.684;23.350;2022-10-16T04:43:56;96088.72;;;9.29;100.00
14067;BME280;7108;42.684;23.350;2022-10-16T04:46:21;96094.44;;;9.28;100.00
14067;BME280;7108;42.684;23.350;2022-10-16T04:48:46;96102.50;;;9.28;100.00
14067;BME280;7108;42.684;23.350;2022-10-16T04:51:12;96106.63;;;9.25;100.00
14067;BME280;7108;42.684;23.350;2022-10-16T04:53:37;96114.69;;;9.25;100.00
14067;BME280;7108;42.684;23.350;2022-10-16T04:56:03;96112.63;;;9.22;100.00
14067;BME280;7108;42.684;23.350;2022-10-16T04:58:28;96122.44;;;9.27;100.00
14067;BME280;7108;42.684;23.350;2022-10-16T05:00:54;96119.72;;;9.27;100.00
14067;BME280;7108;42.684;23.350;2022-10-16T05:03:19;96130.34;;;9.23;100.00
14067;BME280;7108;42.684;23.350;2022-10-16T05:05:45;96129.50;;;9.31;100.00
14067;BME280;7108;42.684;23.350;2022-10-16T05:08:15;96118.50;;;9.24;100.00
14067;BME280;7108;42.684;23.350;2022-10-16T05:10:42;96123.06;;;9.24;100.00
14067;BME280;7108;42.684;23.350;2022-10-16T05:13:08;96118.22;;;9.17;100.00
14067;BME280;7108;42.684;23.350;2022-10-16T05:15:34;96110.28;;;9.21;100.00
14067;BME280;7108;42.684;23.350;2022-10-16T05:17:59;96135.81;;;9.35;100.00
14067;BME280;7108;42.684;23.350;2022-10-16T05:20:25;96135.34;;;9.33;100.00
14067;BME280;7108;42.684;23.350;2022-10-16T05:22:50;96131.59;;;9.26;100.00
14067;BME280;7108;42.684;23.350;2022-10-16T05:25:16;96120.06;;;9.25;100.00
14067;BME280;7108;42.684;23.350;2022-10-16T05:27:42;96136.91;;;9.34;100.00
14067;BME280;7108;42.684;23.350;2022-10-16T05:30:08;96144.00;;;9.39;100.00
14067;BME280;7108;42.684;23.350;2022-10-16T05:32:33;96123.34;;;9.31;100.00
14067;BME280;7108;42.684;23.350;2022-10-16T05:34:59;96136.53;;;9.44;100.00
14067;BME280;7108;42.684;23.350;2022-10-16T05:37:25;96137.84;;;9.38;100.00
14067;BME280;7108;42.684;23.350;2022-10-16T05:39:52;96136.88;;;9.43;100.00
14067;BME280;7108;42.684;23.350;2022-10-16T05:42:17;96143.16;;;9.47;100.00
14067;BME280;7108;42.684;23.350;2022-10-16T05:44:42;96137.97;;;9.42;100.00
14067;BME280;7108;42.684;23.350;2022-10-16T05:47:08;96148.19;;;9.48;100.00
14067;BME280;7108;42.684;23.350;2022-10-16T05:49:34;96145.78;;;9.55;100.00
14067;BME280;7108;42.684;23.350;2022-10-16T05:51:59;96140.53;;;9.59;100.00
14067;BME280;7108;42.684;23.350;2022-10-16T05:54:25;96158.16;;;9.68;100.00
14067;BME280;7108;42.684;23.350;2022-10-16T05:56:50;96152.44;;;9.70;100.00
14067;BME280;7108;42.684;23.350;2022-10-16T05:59:16;96149.75;;;9.70;100.00
14067;BME280;7108;42.684;23.350;2022-10-16T06:01:41;96160.94;;;9.80;100.00
14067;BME280;7108;42.684;23.350;2022-10-16T06:04:08;96163.69;;;9.92;100.00
14067;BME280;7108;42.684;23.350;2022-10-16T06:06:34;96151.06;;;9.84;100.00
14067;BME280;7108;42.684;23.350;2022-10-16T06:09:02;96178.78;;;10.05;100.00
14067;BME280;7108;42.684;23.350;2022-10-16T06:11:30;96182.28;;;10.05;100.00
14067;BME280;7108;42.684;23.350;2022-10-16T06:13:58;96181.94;;;10.07;100.00
14067;BME280;7108;42.684;23.350;2022-10-16T06:16:24;96177.25;;;10.16;100.00
14067;BME280;7108;42.684;23.350;2022-10-16T06:18:51;96186.38;;;10.23;100.00
14067;BME280;7108;42.684;23.350;2022-10-16T06:21:19;96189.31;;;10.30;100.00
14067;BME280;7108;42.684;23.350;2022-10-16T06:23:45;96189.56;;;10.37;100.00
14067;BME280;7108;42.684;23.350;2022-10-16T06:26:13;96188.66;;;10.33;100.00
14067;BME280;7108;42.684;23.350;2022-10-16T06:28:39;96199.94;;;10.47;100.00
14067;BME280;7108;42.684;23.350;2022-10-16T06:31:06;96196.34;;;10.55;100.00
14067;BME280;7108;42.684;23.350;2022-10-16T06:33:32;96195.03;;;10.61;100.00
14067;BME280;7108;42.684;23.350;2022-10-16T06:38:31;96199.09;;;10.67;100.00
14067;BME280;7108;42.684;23.350;2022-10-16T06:40:57;96200.66;;;10.68;100.00
14067;BME280;7108;42.684;23.350;2022-10-16T06:43:23;96192.97;;;10.58;100.00
14067;BME280;7108;42.684;23.350;2022-10-16T06:45:55;96208.84;;;10.71;100.00
14067;BME280;7108;42.684;23.350;2022-10-16T06:48:22;96190.66;;;10.68;100.00
14067;BME280;7108;42.684;23.350;2022-10-16T06:53:28;96219.00;;;10.98;100.00
14067;BME280;7108;42.684;23.350;2022-10-16T06:55:54;96219.78;;;11.10;100.00
14067;BME280;7108;42.684;23.350;2022-10-16T06:58:20;96219.03;;;11.22;100.00
14067;BME280;7108;42.684;23.350;2022-10-16T07:00:46;96226.22;;;11.42;100.00
14067;BME280;7108;42.684;23.350;2022-10-16T07:03:11;96225.31;;;11.74;100.00
14067;BME280;7108;42.684;23.350;2022-10-16T07:05:38;96224.25;;;12.02;100.00
14067;BME280;7108;42.684;23.350;2022-10-16T07:08:03;96216.66;;;12.07;100.00
14067;BME280;7108;42.684;23.350;2022-10-16T07:10:30;96206.66;;;12.08;100.00
14067;BME280;7108;42.684;23.350;2022-10-16T07:12:56;96208.09;;;12.17;100.00
14067;BME280;7108;42.684;23.350;2022-10-16T07:15:21;96222.88;;;12.35;100.00
14067;BME280;7108;42.684;23.350;2022-10-16T07:17:47;96212.75;;;12.32;100.00
14067;BME280;7108;42.684;23.350;2022-10-16T07:20:12;96218.59;;;12.34;100.00
14067;BME280;7108;42.684;23.350;2022-10-16T07:22:38;96221.06;;;12.39;100.00
14067;BME280;7108;42.684;23.350;2022-10-16T07:25:03;96224.78;;;12.35;100.00
14067;BME280;7108;42.684;23.350;2022-10-16T07:27:29;96219.97;;;12.28;100.00
14067;BME280;7108;42.684;23.350;2022-10-16T07:29:54;96226.72;;;12.34;100.00
14067;BME280;7108;42.684;23.350;2022-10-16T07:32:19;96214.78;;;12.35;100.00
14067;BME280;7108;42.684;23.350;2022-10-16T07:34:45;96223.88;;;12.43;100.00
14067;BME280;7108;42.684;23.350;2022-10-16T07:37:11;96222.03;;;12.46;100.00
14067;BME280;7108;42.684;23.350;2022-10-16T07:39:36;96217.34;;;12.43;100.00
14067;BME280;7108;42.684;23.350;2022-10-16T07:42:01;96223.97;;;12.46;100.00
14067;BME280;7108;42.684;23.350;2022-10-16T07:44:27;96223.16;;;12.45;100.00
14067;BME280;7108;42.684;23.350;2022-10-16T07:46:52;96227.09;;;12.48;100.00
14067;BME280;7108;42.684;23.350;2022-10-16T07:49:18;96225.44;;;12.43;100.00
14067;BME280;7108;42.684;23.350;2022-10-16T07:51:43;96227.34;;;12.43;100.00
14067;BME280;7108;42.684;23.350;2022-10-16T07:54:09;96227.19;;;12.51;100.00
14067;BME280;7108;42.684;23.350;2022-10-16T07:56:35;96223.16;;;12.45;100.00
14067;BME280;7108;42.684;23.350;2022-10-16T07:59:00;96234.94;;;12.53;100.00
14067;BME280;7108;42.684;23.350;2022-10-16T08:01:26;96241.94;;;12.54;100.00
14067;BME280;7108;42.684;23.350;2022-10-16T08:03:52;96234.69;;;12.58;100.00
14067;BME280;7108;42.684;23.350;2022-10-16T08:06:20;96236.63;;;12.57;100.00
14067;BME280;7108;42.684;23.350;2022-10-16T08:08:46;96227.56;;;12.65;100.00
14067;BME280;7108;42.684;23.350;2022-10-16T08:11:12;96237.72;;;12.68;100.00
14067;BME280;7108;42.684;23.350;2022-10-16T08:13:39;96243.22;;;12.72;100.00
14067;BME280;7108;42.684;23.350;2022-10-16T08:16:04;96220.78;;;12.71;100.00
14067;BME280;7108;42.684;23.350;2022-10-16T08:18:36;96224.03;;;12.77;100.00
14067;BME280;7108;42.684;23.350;2022-10-16T08:21:03;96217.81;;;12.76;100.00
14067;BME280;7108;42.684;23.350;2022-10-16T08:23:28;96232.88;;;12.89;100.00
14067;BME280;7108;42.684;23.350;2022-10-16T08:25:55;96238.81;;;12.95;100.00
14067;BME280;7108;42.684;23.350;2022-10-16T08:28:21;96230.03;;;12.98;100.00
14067;BME280;7108;42.684;23.350;2022-10-16T08:30:47;96229.06;;;13.06;100.00
14067;BME280;7108;42.684;23.350;2022-10-16T08:33:13;96220.31;;;13.12;100.00
14067;BME280;7108;42.684;23.350;2022-10-16T08:35:38;96212.84;;;13.21;100.00
14067;BME280;7108;42.684;23.350;2022-10-16T08:38:04;96220.69;;;13.26;100.00
14067;BME280;7108;42.684;23.350;2022-10-16T08:40:31;96202.78;;;13.21;100.00
14067;BME280;7108;42.684;23.350;2022-10-16T08:48:35;96221.09;;;13.43;100.00
14067;BME280;7108;42.684;23.350;2022-10-16T08:51:07;96210.19;;;13.40;100.00
14067;BME280;7108;42.684;23.350;2022-10-16T08:53:46;96205.91;;;13.54;100.00
14067;BME280;7108;42.684;23.350;2022-10-16T08:56:11;96229.19;;;13.74;100.00
14067;BME280;7108;42.684;23.350;2022-10-16T08:58:37;96212.94;;;13.74;100.00
14067;BME280;7108;42.684;23.350;2022-10-16T09:01:11;96229.28;;;13.96;100.00
14067;BME280;7108;42.684;23.350;2022-10-16T09:16:52;96208.34;;;14.28;100.00
14067;BME280;7108;42.684;23.350;2022-10-16T09:19:31;96223.59;;;14.36;97.70
14067;BME280;7108;42.684;23.350;2022-10-16T09:22:16;96211.59;;;14.37;98.52
14067;BME280;7108;42.684;23.350;2022-10-16T09:24:41;96210.25;;;14.46;100.00
14067;BME280;7108;42.684;23.350;2022-10-16T09:27:14;96216.16;;;14.51;100.00
14067;BME280;7108;42.684;23.350;2022-10-16T09:29:40;96213.53;;;14.55;100.00
14067;BME280;7108;42.684;23.350;2022-10-16T09:32:18;96220.72;;;14.66;99.28
14067;BME280;7108;42.684;23.350;2022-10-16T09:34:50;96216.50;;;14.69;97.69
14067;BME280;7108;42.684;23.350;2022-10-16T09:37:18;96205.56;;;14.65;96.73
14067;BME280;7108;42.684;23.350;2022-10-16T09:39:54;96210.78;;;14.74;98.76
14067;BME280;7108;42.684;23.350;2022-10-16T09:42:31;96210.84;;;14.77;95.28
14067;BME280;7108;42.684;23.350;2022-10-16T09:44:58;96211.69;;;14.81;92.46
14067;BME280;7108;42.684;23.350;2022-10-16T09:47:28;96210.63;;;14.86;90.97
14067;BME280;7108;42.684;23.350;2022-10-16T09:49:59;96188.91;;;14.86;93.23
14067;BME280;7108;42.684;23.350;2022-10-16T09:52:28;96206.56;;;14.99;97.57
14067;BME280;7108;42.684;23.350;2022-10-16T09:54:59;96188.25;;;14.92;89.19
14067;BME280;7108;42.684;23.350;2022-10-16T09:57:25;96190.78;;;15.04;88.81
14067;BME280;7108;42.684;23.350;2022-10-16T09:59:55;96199.91;;;15.15;86.24
14067;BME280;7108;42.684;23.350;2022-10-16T10:02:35;96189.03;;;15.15;81.05
14067;BME280;7108;42.684;23.350;2022-10-16T10:05:05;96180.06;;;15.11;81.06
14067;BME280;7108;42.684;23.350;2022-10-16T10:07:43;96194.59;;;15.22;84.02
14067;BME280;7108;42.684;23.350;2022-10-16T10:10:20;96176.72;;;15.21;73.75
14067;BME280;7108;42.684;23.350;2022-10-16T10:12:47;96182.34;;;15.31;76.58
14067;BME280;7108;42.684;23.350;2022-10-16T10:15:13;96178.44;;;15.29;78.05
14067;BME280;7108;42.684;23.350;2022-10-16T10:17:53;96176.91;;;15.31;75.69
14067;BME280;7108;42.684;23.350;2022-10-16T10:22:47;96172.75;;;15.37;77.87
14067;BME280;7108;42.684;23.350;2022-10-16T10:39:13;96165.41;;;15.93;73.11
14067;BME280;7108;42.684;23.350;2022-10-16T10:50:14;96153.22;;;16.13;67.71
14067;BME280;7108;42.684;23.350;2022-10-16T11:01:14;96145.34;;;16.30;64.84
14067;BME280;7108;42.684;23.350;2022-10-16T11:06:36;96126.34;;;16.37;64.82
14067;BME280;7108;42.684;23.350;2022-10-16T11:09:24;96136.91;;;16.42;63.57
14067;BME280;7108;42.684;23.350;2022-10-16T11:12:39;96131.94;;;16.47;62.80
14067;BME280;7108;42.684;23.350;2022-10-16T11:17:32;96127.31;;;16.51;63.45
14067;BME280;7108;42.684;23.350;2022-10-16T11:20:11;96121.44;;;16.46;59.27
14067;BME280;7108;42.684;23.350;2022-10-16T11:22:43;96130.09;;;16.58;59.73
14067;BME280;7108;42.684;23.350;2022-10-16T11:25:19;96117.59;;;16.54;56.99
14067;BME280;7108;42.684;23.350;2022-10-16T11:28:06;96121.94;;;16.62;57.51
14067;BME280;7108;42.684;23.350;2022-10-16T11:38:51;96115.53;;;16.80;57.44
14067;BME280;7108;42.684;23.350;2022-10-16T11:41:35;96124.94;;;16.90;58.03
14067;BME280;7108;42.684;23.350;2022-10-16T11:44:33;96127.72;;;16.93;58.41
14067;BME280;7108;42.684;23.350;2022-10-16T11:47:30;96119.28;;;17.05;58.92
14067;BME280;7108;42.684;23.350;2022-10-16T11:50:28;96121.25;;;17.11;59.01
14067;BME280;7108;42.684;23.350;2022-10-16T11:55:44;96115.13;;;17.21;58.94
14067;BME280;7108;42.684;23.350;2022-10-16T12:03:38;96116.91;;;17.47;54.50
14067;BME280;7108;42.684;23.350;2022-10-16T12:08:43;96116.13;;;17.50;55.55
14067;BME280;7108;42.684;23.350;2022-10-16T12:16:54;96110.47;;;17.79;56.93
14067;BME280;7108;42.684;23.350;2022-10-16T12:19:20;96113.59;;;17.84;55.02
14067;BME280;7108;42.684;23.350;2022-10-16T12:21:46;96111.31;;;17.90;57.42
14067;BME280;7108;42.684;23.350;2022-10-16T12:24:35;96117.16;;;17.95;54.04
14067;BME280;7108;42.684;23.350;2022-10-16T12:27:03;96112.88;;;17.98;52.27
14067;BME280;7108;42.684;23.350;2022-10-16T12:29:39;96125.00;;;18.07;55.63
14067;BME280;7108;42.684;23.350;2022-10-16T12:32:32;96111.78;;;18.13;55.33
14067;BME280;7108;42.684;23.350;2022-10-16T12:35:00;96117.25;;;18.09;52.77
14067;BME280;7108;42.684;23.350;2022-10-16T12:37:32;96112.19;;;18.15;52.98
14067;BME280;7108;42.684;23.350;2022-10-16T12:39:59;96116.53;;;18.23;54.30
14067;BME280;7108;42.684;23.350;2022-10-16T12:42:36;96113.03;;;18.22;57.87
14067;BME280;7108;42.684;23.350;2022-10-16T12:45:22;96118.47;;;18.19;54.05
14067;BME280;7108;42.684;23.350;2022-10-16T12:47:52;96114.59;;;18.23;55.22
14067;BME280;7108;42.684;23.350;2022-10-16T12:50:38;96102.06;;;18.12;54.12
14067;BME280;7108;42.684;23.350;2022-10-16T12:53:19;96108.66;;;18.11;54.60
14067;BME280;7108;42.684;23.350;2022-10-16T12:56:12;96119.56;;;18.11;55.53
14067;BME280;7108;42.684;23.350;2022-10-16T13:16:07;96122.94;;;17.87;49.97
14067;BME280;7108;42.684;23.350;2022-10-16T13:18:40;96123.75;;;17.87;49.92
14067;BME280;7108;42.684;23.350;2022-10-16T13:29:12;96129.13;;;17.77;49.22
14067;BME280;7108;42.684;23.350;2022-10-16T13:31:39;96127.59;;;17.79;50.08
14067;BME280;7108;42.684;23.350;2022-10-16T13:34:05;96119.34;;;17.66;49.90
14067;BME280;7108;42.684;23.350;2022-10-16T13:36:45;96132.63;;;17.74;49.31
14067;BME280;7108;42.684;23.350;2022-10-16T13:39:25;96135.75;;;17.76;50.82
14067;BME280;7108;42.684;23.350;2022-10-16T13:42:04;96138.47;;;17.76;50.27
14067;BME280;7108;42.684;23.350;2022-10-16T13:44:39;96136.47;;;17.66;51.40
14067;BME280;7108;42.684;23.350;2022-10-16T13:47:10;96107.16;;;17.46;46.66
14067;BME280;7108;42.684;23.350;2022-10-16T13:49:39;96135.66;;;17.62;45.60
14067;BME280;7108;42.684;23.350;2022-10-16T13:52:05;96130.56;;;17.57;47.26
14067;BME280;7108;42.684;23.350;2022-10-16T13:54:30;96135.63;;;17.59;47.33
14067;BME280;7108;42.684;23.350;2022-10-16T13:56:56;96135.69;;;17.66;47.23
14067;BME280;7108;42.684;23.350;2022-10-16T13:59:36;96142.31;;;17.65;47.42
14067;BME280;7108;42.684;23.350;2022-10-16T14:02:14;96140.31;;;17.58;48.13
14067;BME280;7108;42.684;23.350;2022-10-16T14:04:42;96133.25;;;17.50;45.76
14067;BME280;7108;42.684;23.350;2022-10-16T14:07:14;96142.25;;;17.54;46.42
14067;BME280;7108;42.684;23.350;2022-10-16T14:09:48;96134.84;;;17.55;46.86
14067;BME280;7108;42.684;23.350;2022-10-16T14:12:15;96126.19;;;17.42;45.47
14067;BME280;7108;42.684;23.350;2022-10-16T14:14:45;96136.75;;;17.47;45.17
14067;BME280;7108;42.684;23.350;2022-10-16T14:17:32;96148.41;;;17.48;46.93
14067;BME280;7108;42.684;23.350;2022-10-16T14:20:01;96152.31;;;17.50;46.11
14067;BME280;7108;42.684;23.350;2022-10-16T14:22:41;96146.44;;;17.45;45.42
14067;BME280;7108;42.684;23.350;2022-10-16T14:27:44;96157.28;;;17.34;46.11
14067;BME280;7108;42.684;23.350;2022-10-16T14:30:18;96151.28;;;17.22;46.35
14067;BME280;7108;42.684;23.350;2022-10-16T14:32:59;96163.47;;;17.31;45.63
14067;BME280;7108;42.684;23.350;2022-10-16T14:37:55;96161.34;;;17.14;46.71
14067;BME280;7108;42.684;23.350;2022-10-16T14:40:30;96155.84;;;17.08;46.62
14067;BME280;7108;42.684;23.350;2022-10-16T14:42:56;96163.59;;;17.06;45.90
14067;BME280;7108;42.684;23.350;2022-10-16T14:45:24;96169.78;;;16.99;45.55
14067;BME280;7108;42.684;23.350;2022-10-16T14:47:57;96175.16;;;16.92;45.64
14067;BME280;7108;42.684;23.350;2022-10-16T14:50:23;96179.78;;;16.88;45.71
14067;BME280;7108;42.684;23.350;2022-10-16T14:52:48;96173.88;;;16.79;45.63
14067;BME280;7108;42.684;23.350;2022-10-16T14:55:14;96175.41;;;16.77;46.21
14067;BME280;7108;42.684;23.350;2022-10-16T14:57:39;96182.75;;;16.76;47.11
14067;BME280;7108;42.684;23.350;2022-10-16T15:00:21;96181.19;;;16.75;47.33
14067;BME280;7108;42.684;23.350;2022-10-16T15:02:49;96173.31;;;16.63;47.21
14067;BME280;7108;42.684;23.350;2022-10-16T15:07:41;96184.09;;;16.56;48.44
14067;BME280;7108;42.684;23.350;2022-10-16T15:10:07;96186.50;;;16.61;49.01
14067;BME280;7108;42.684;23.350;2022-10-16T15:12:32;96177.03;;;16.48;49.40
14067;BME280;7108;42.684;23.350;2022-10-16T15:14:57;96180.91;;;16.47;49.62
14067;BME280;7108;42.684;23.350;2022-10-16T15:17:23;96188.63;;;16.45;51.54
14067;BME280;7108;42.684;23.350;2022-10-16T15:19:48;96174.84;;;16.28;51.48
14067;BME280;7108;42.684;23.350;2022-10-16T15:22:14;96187.69;;;16.31;50.87
14067;BME280;7108;42.684;23.350;2022-10-16T15:24:39;96192.34;;;16.31;52.31
14067;BME280;7108;42.684;23.350;2022-10-16T15:27:04;96173.13;;;16.17;53.09
14067;BME280;7108;42.684;23.350;2022-10-16T15:29:30;96192.91;;;16.17;53.85